EFKU

Kuopio Airport

Kuopio / Siilinjärvi, Finland
METAR EFKU 190650Z 10003KT 5000 -SN BKN020 OVC061 M11/M13 Q1004
Observed Flight Rules
Jan-19 @ 06:50 UTC (39 minutes ago) Marginal Visual Flight Rules
Wind Visibility Clouds Conditions
100° at 3 knots 5,005 meters
  • Broken at 2,000' AGL
  • Overcast at 6,100' AGL
  • Light Snow
Temperatures Readings
Current -11°C / 12°F
Dewpoint -13°C / 9°F
Humidity 85%
Altimeter 29.65" Hg
Pressure 1004 hPa
Elevation 102
METAR EFKU 190650Z 10003KT 5000 -SN BKN020 OVC061 M11/M13 Q1004
Observed Flight Rules
Jan-19 @ 06:50 UTC
(39 minutes ago)
MVFR
Wind Visibility
100° at 3 knots 5,005 meters
Clouds
  • Broken at 2,000' AGL
  • Overcast at 6,100' AGL
Conditions
  • Light Snow
Temperature Dewpoint
-11°C / 12°F -13°C / 9°F
Humidity Altimeter Pressure
85% 29.65" Hg 1004 hPa